New Albany, MS (38652)

6:52 AM CST on December 29, 2014 (GMT -0600)
Northhaven | Change Station
CLOSE
Current Station
Personal Weather Station
Location: New Albany, MS
Elevation: 364 ft
Nearby Weather Stations

Elev 364 ft 34.51 °N, 89.00 °W | Updated 13 minutes ago

Overcast
Overcast
38.7 °F
Feels Like 39 °F
N
2.7
Wind Variable Wind from NNE

Today
High -- | Low -- °F
--% Chance of Precip.
Yesterday
High -- | Low -- °F
Precip. -- in
7:02 AM 4:54 PM
First Quarter, 58% visible
Pressure 30.13 in
Visibility 7.0 miles
Clouds Overcast 600 ft
Windchill 39 °F
Dew Point 38 °F
Humidity 99%
Rainfall 0.04 in
Snow Depth Not available.
UV 0 out of 12
Pollen .30 out of 12
Air Quality Not available.
Flu Activity Not available.
METAR KTUP 291153Z AUTO 03009KT 7SM OVC006 06/04 A3013 RMK AO2 CIG 004V010 SLP202 60001 70036 T00560039 10061 20056 53004

More Conditions Fewer Conditions

Pressure 30.13 in
Visibility 7.0 miles
Clouds Overcast 600 ft
Windchill 39 °F
Dew Point 38 °F
Humidity 99%
Rainfall 0.04 in
Snow Depth Not available.
UV 0 out of 12
Pollen .30 out of 12
Air Quality Not available.
Flu Activity Not available.
METAR KTUP 291153Z AUTO 03009KT 7SM OVC006 06/04 A3013 RMK AO2 CIG 004V010 SLP202 60001 70036 T00560039 10061 20056 53004

More Conditions Fewer Conditions

10-Day Weather Forecast

Almanac

Astronomy

Dec. 29, 2014 Rise Set
Actual Time
Civil Twilight
Nautical Twilight
Astronomical Twilight
Moon
Length of Visible Light
Length of Day
Tomorrow will be .
, % of the Moon is Illuminated

Today's Extremes

State Highs State Lows

Community

WunderPhotos

Upload Photos

1,781,574 photos uploaded!

WunderBlogs® & News

Nearby

Air Quality

  Air Quality AQ Index Pollutant
Not available.

Snow Depth

Station Depth Elevation

Earthquake Activity

City Distance Mag. Time & Date
Minimum magnitude displayed is 2.5.

Coastal Water Temperatures

Place Temperature

Nearby Weather Stations